Latest Weather Observations for Thredbo Top Station

IDN60801

Issued at 10:22 pm EST Sunday 3 July 2022 (issued every 10 minutes, with the page automatically refreshed every 10 minutes)

About weather observations | Map of weather stations | Latest weather observations for NSW | Other Formats
Station Details ID: 071032 Name: THREDBO AWS Lat: -36.49 Lon: 148.29 Height: 1957.0 m
Data from the previous 72 hours. | See also: Recent months at Thredbo Top Station
Date/Time
EST
Temp
°C
App
Temp
°C
Dew
Point
°C
Rel
Hum
%
Delta-T
°C
Wind Press
QNH
hPa
Press
MSL
hPa
Rain since
9am
mm
Dir  Spd
km/h
Gust
km/h
Spd
kts
Gust
kts
03/10:00pm -3.0 -9.0 -3.3 98 0.0 ENE 19 32 10 17 1023.1 1027.0 0.2
03/09:30pm -3.0 -10.7 -3.3 98 0.0 ENE 28 37 15 20 1023.1 1027.0 0.2
03/09:00pm -2.8 -9.0 -3.1 98 0.0 E 20 32 11 17 1023.1 1027.0 0.2
03/08:30pm -2.7 -8.7 -3.0 98 0.0 E 19 30 10 16 1023.6 1027.5 0.2
03/08:00pm -2.8 -9.4 -3.1 98 0.0 E 22 37 12 20 1023.6 1027.5 0.2
03/07:30pm -2.3 -8.8 -2.4 99 -0.1 E 22 32 12 17 1023.6 1027.5 0.2
03/07:00pm -1.8 -7.3 -1.9 99 -0.1 ESE 17 24 9 13 1023.6 1027.5 0.2
03/06:30pm -1.6 -6.7 -1.7 99 0.0 ESE 15 22 8 12 1023.4 1027.2 0.2
03/06:00pm -1.4 -6.0 -1.4 100 0.0 SE 13 20 7 11 1023.4 1027.2 0.2
03/05:30pm -1.5 -6.2 -1.5 100 0.0 ESE 13 17 7 9 1023.3 1027.1 0.2
03/05:00pm -1.2 -6.6 -1.2 100 0.0 ESE 17 22 9 12 1023.0 1026.8 0.0
03/04:30pm -0.9 -6.2 -0.9 100 0.0 SE 17 24 9 13 1023.3 1027.1 0.0
03/04:00pm -0.8 -6.5 -0.8 100 0.0 SSW 19 28 10 15 1023.3 1027.1 0.0
03/03:30pm -0.7 -6.0 -0.7 100 0.0 SE 17 26 9 14 1023.5 1027.4 0.0
03/03:00pm -0.6 -6.5 -0.6 100 0.0 SSE 20 33 11 18 1023.7 1027.6 0.0
03/02:30pm -0.6 -6.5 -0.6 100 0.0 S 20 32 11 17 1023.7 1027.6 0.0
03/02:00pm -0.7 -7.0 -0.7 100 0.0 SE 22 33 12 18 1024.0 1027.9 0.0
03/01:30pm -0.4 -6.2 -0.4 100 0.0 ESE 20 32 11 17 1024.2 1028.1 0.0
03/01:00pm -0.7 -2.8 -0.8 99 0.0 CALM 0 0 0 0 1024.5 1028.4 0.0
03/12:30pm -0.8 -2.9 -0.9 99 0.0 CALM 0 0 0 0 1024.8 1028.8 0.0
03/12:00pm -1.0 -3.1 -1.1 99 0.0 CALM 0 0 0 0 1025.1 1029.0 0.0
03/11:30am -0.8 -2.9 -0.9 99 0.0 CALM 0 0 0 0 1025.3 1029.3 0.0
03/11:00am -0.9 -3.0 -1.0 99 0.0 CALM 0 0 0 0 1025.6 1029.5 0.0
03/10:30am -1.0 -3.1 -1.1 99 0.0 CALM 0 0 0 0 1025.7 1029.6 0.0
03/10:00am -1.3 -3.5 -1.4 99 0.0 CALM 0 0 0 0 1025.9 1029.9 0.0
03/09:30am -1.5 -3.7 -1.6 99 0.0 CALM 0 0 0 0 1025.9 1029.9 0.0
03/09:00am -1.6 -3.8 -1.7 99 0.0 CALM 0 0 0 0 1025.8 1029.8 0.2
03/08:30am -1.6 -3.8 -1.7 99 0.0 CALM 0 0 0 0 1025.7 1029.6 0.2
03/08:00am -1.9 -4.2 -2.0 99 -0.1 CALM 0 0 0 0 1025.7 1029.6 0.2
03/07:30am -1.7 -3.9 -1.8 99 0.0 CALM 0 0 0 0 1025.6 1029.5 0.2
03/07:00am -1.6 -3.8 -1.7 99 0.0 CALM 0 0 0 0 1025.2 1029.1 0.2
03/06:30am -1.5 -3.7 -1.6 99 0.0 CALM 0 0 0 0 1025.0 1028.9 0.2
03/06:00am -1.6 -3.8 -1.7 99 0.0 CALM 0 0 0 0 1024.8 1028.8 0.2
03/05:30am -1.6 -3.8 -1.7 99 0.0 CALM 0 0 0 0 1024.5 1028.4 0.2
03/05:00am -1.5 -3.7 -1.6 99 0.0 CALM 0 0 0 0 1024.3 1028.2 0.2
03/04:30am -1.5 -3.7 -1.6 99 0.0 CALM 0 0 0 0 1024.3 1028.2 0.2
03/04:00am -1.7 -3.9 -1.8 99 0.0 CALM 0 0 0 0 1024.3 1028.2 0.2
03/03:30am -1.6 -3.8 -1.7 99 0.0 CALM 0 0 0 0 1024.5 1028.4 0.2
03/03:00am -1.9 -6.2 -2.0 99 -0.1 ESE 11 13 6 7 1024.3 1028.2 0.2
03/02:30am -1.9 -6.6 -2.0 99 -0.1 NNE 13 19 7 10 1024.6 1028.5 0.2
03/02:00am -2.0 -7.5 -2.1 99 -0.1 NNE 17 20 9 11 1024.6 1028.5 0.2
03/01:30am -2.2 -8.1 -2.3 99 -0.1 NE 19 22 10 12 1024.8 1028.8 0.2
03/01:00am -2.1 -5.7 -2.2 99 -0.1 SSW 7 9 4 5 1024.8 1028.8 0.2
03/12:30am -2.3 -6.3 -2.4 99 -0.1 SW 9 11 5 6 1025.0 1028.9 0.2
03/12:00am -2.0 -6.0 -2.1 99 -0.1 SSW 9 13 5 7 1025.2 1029.1 0.2
 
Date/Time
EST
Temp
°C
App
Temp
°C
Dew
Point
°C
Rel
Hum
%
Delta-T
°C
Wind Press
QNH
hPa
Press
MSL
hPa
Rain since
9am
mm
Dir  Spd
km/h
Gust
km/h
Spd
kts
Gust
kts
02/11:30pm -2.1 -6.9 -2.2 99 -0.1 SSW 13 15 7 8 1025.3 1029.3 0.2
02/11:00pm -2.3 -7.5 -2.4 99 -0.1 NE 15 20 8 11 1025.3 1029.3 0.2
02/10:30pm -2.4 -7.2 -2.5 99 -0.1 SSW 13 20 7 11 1025.2 1029.1 0.2
02/10:00pm -2.3 -6.7 -2.4 99 -0.1 WSW 11 17 6 9 1025.2 1029.1 0.2
02/09:30pm -2.2 -7.0 -2.3 99 -0.1 SW 13 17 7 9 1025.3 1029.3 0.2
02/09:00pm -2.0 -6.4 -2.1 99 -0.1 ENE 11 20 6 11 1025.3 1029.3 0.2
02/08:30pm -2.1 -6.9 -2.2 99 -0.1 E 13 20 7 11 1025.3 1029.3 0.2
02/08:00pm -2.1 -6.9 -2.2 99 -0.1 ENE 13 19 7 10 1025.4 1029.4 0.2
02/07:30pm -2.1 -7.2 -2.2 99 -0.1 ENE 15 19 8 10 1025.3 1029.3 0.2
02/07:00pm -2.0 -6.7 -2.1 99 -0.1 ENE 13 20 7 11 1025.2 1029.1 0.2
02/06:30pm -1.9 -6.6 -2.0 99 -0.1 ENE 13 19 7 10 1025.1 1029.0 0.2
02/06:00pm -1.9 -6.6 -2.0 99 -0.1 E 13 20 7 11 1025.0 1028.9 0.2
02/05:30pm -2.0 -7.5 -2.1 99 -0.1 ENE 17 26 9 14 1025.0 1028.9 0.2
02/05:00pm -1.9 -7.4 -2.0 99 -0.1 E 17 24 9 13 1024.8 1028.8 0.2
02/04:30pm -1.7 -7.2 -1.8 99 0.0 E 17 22 9 12 1024.8 1028.8 0.2
02/04:00pm -1.6 -6.7 -1.7 99 0.0 ENE 15 22 8 12 1025.0 1028.9 0.2
02/03:30pm -1.5 -6.6 -1.6 99 0.0 E 15 24 8 13 1025.0 1028.9 0.2
02/03:00pm -1.5 -6.9 -1.6 99 0.0 ENE 17 24 9 13 1024.8 1028.8 0.2
02/02:30pm -1.4 -6.8 -1.5 99 0.0 ENE 17 24 9 13 1024.7 1028.6 0.2
02/02:00pm -1.5 -7.3 -1.6 99 0.0 ENE 19 30 10 16 1024.7 1028.6 0.2
02/01:30pm -1.1 -6.9 -1.2 99 0.0 ENE 19 28 10 15 1024.8 1028.8 0.2
02/01:00pm -0.9 -5.9 -1.0 99 0.0 E 15 26 8 14 1025.0 1028.9 0.2
02/12:30pm -0.9 -5.5 -1.0 99 0.0 ENE 13 20 7 11 1025.3 1029.3 0.2
02/12:00pm -0.9 -5.9 -1.0 99 0.0 NE 15 19 8 10 1025.6 1029.5 0.2
02/11:30am -1.4 -6.8 -1.5 99 0.0 NE 17 24 9 13 1026.0 1030.0 0.0
02/11:00am -1.5 -7.0 -1.8 98 0.0 NE 17 20 9 11 1026.5 1030.5 0.0
02/10:30am -1.6 -7.5 -1.9 98 0.0 NE 19 26 10 14 1026.9 1030.9 0.0
02/10:00am -1.7 -5.6 -1.8 99 0.0 ENE 9 15 5 8 1027.0 1031.0 0.0
02/09:30am -2.1 -6.5 -2.2 99 -0.1 ENE 11 17 6 9 1026.9 1030.9 0.0
02/09:00am -2.4 -7.2 -2.7 98 0.0 ENE 13 19 7 10 1026.9 1030.9 0.0
02/08:30am -2.4 -6.1 -2.7 98 0.0 NE 7 9 4 5 1026.9 1030.9 0.0
02/08:00am -2.8 -6.5 -3.1 98 0.0 NE 7 9 4 5 1026.7 1030.7 0.0
02/07:30am -2.7 -6.2 -3.0 98 0.0 NE 6 9 3 5 1026.7 1030.7 0.0
02/07:00am -2.9 -6.6 -3.2 98 0.0 NNE 7 9 4 5 1026.4 1030.4 0.0
02/06:30am -3.1 -6.9 -3.4 98 0.0 NNE 7 7 4 4 1026.0 1030.0 0.0
02/06:00am -3.1 -6.9 -3.4 98 0.0 NNE 7 9 4 5 1025.8 1029.8 0.0
02/05:30am -2.9 -6.4 -3.2 98 0.0 NE 6 7 3 4 1025.9 1029.9 0.0
02/05:00am -2.7 -6.4 -3.0 98 0.0 NE 7 7 4 4 1025.8 1029.8 0.0
02/04:30am -2.8 -6.3 -3.1 98 0.0 NE 6 7 3 4 1025.8 1029.8 0.0
02/04:00am -2.7 -6.2 -3.0 98 0.0 NE 6 7 3 4 1025.9 1029.9 0.0
02/03:30am -2.7 -6.4 -3.0 98 0.0 NE 7 9 4 5 1025.9 1029.9 0.0
02/03:00am -3.0 -6.6 -3.3 98 0.0 ENE 6 7 3 4 1026.0 1030.0 0.0
02/02:30am -3.0 -6.7 -3.3 98 0.0 ENE 7 9 4 5 1026.0 1030.0 0.0
02/02:00am -3.2 -7.0 -3.5 98 0.0 ENE 7 9 4 5 1026.0 1030.0 0.0
02/01:30am -3.1 -6.9 -3.4 98 0.0 ENE 7 9 4 5 1025.9 1029.9 0.0
02/01:00am -3.5 -7.7 -3.8 98 -0.1 ENE 9 9 5 5 1026.0 1030.0 0.0
02/12:30am -3.5 -7.3 -3.8 98 -0.1 NE 7 9 4 5 1026.0 1030.0 0.0
02/12:00am -3.2 -7.0 -3.5 98 0.0 NE 7 9 4 5 1025.9 1029.9 0.0
 
Date/Time
EST
Temp
°C
App
Temp
°C
Dew
Point
°C
Rel
Hum
%
Delta-T
°C
Wind Press
QNH
hPa
Press
MSL
hPa
Rain since
9am
mm
Dir  Spd
km/h
Gust
km/h
Spd
kts
Gust
kts
01/11:30pm -3.0 -7.1 -3.3 98 0.0 NE 9 9 5 5 1025.9 1029.9 0.0
01/11:00pm -3.3 -7.1 -3.6 98 0.0 NE 7 9 4 5 1026.3 1030.3 0.0
01/10:30pm -3.5 -7.7 -3.8 98 -0.1 ENE 9 9 5 5 1026.5 1030.5 0.0
01/10:00pm -3.6 -7.8 -3.9 98 -0.1 ENE 9 9 5 5 1026.7 1030.7 0.0
01/09:30pm -3.8 -8.4 -4.1 98 -0.1 ENE 11 15 6 8 1026.7 1030.7 0.0
01/09:00pm -3.8 -8.4 -4.1 98 -0.1 E 11 19 6 10 1026.9 1030.9 0.0
01/08:30pm -3.9 -8.1 -4.2 98 -0.1 ENE 9 17 5 9 1026.8 1030.8 0.0
01/08:00pm -3.7 -8.3 -4.0 98 -0.1 E 11 17 6 9 1026.9 1030.9 0.0
01/07:30pm -3.4 -7.6 -3.7 98 -0.1 ENE 9 15 5 8 1026.4 1030.4 0.0
01/07:00pm -3.1 -7.2 -3.4 98 0.0 ESE 9 17 5 9 1026.2 1030.2 0.0
01/06:30pm -2.6 -6.7 -2.7 99 -0.1 E 9 11 5 6 1025.9 1029.9 0.0
01/06:00pm -2.5 -6.5 -2.6 99 -0.1 ESE 9 17 5 9 1025.7 1029.6 0.0
01/05:30pm -2.5 -6.9 -2.6 99 -0.1 E 11 19 6 10 1025.6 1029.5 0.0
01/05:00pm -2.4 -7.2 -2.5 99 -0.1 ESE 13 19 7 10 1025.4 1029.4 0.0
01/04:30pm -2.2 -7.7 -2.3 99 -0.1 ESE 17 20 9 11 1025.3 1029.3 0.0
01/04:00pm -2.0 -6.4 -2.1 99 -0.1 ESE 11 17 6 9 1025.3 1029.3 0.0
01/03:30pm -2.0 -6.7 -2.1 99 -0.1 ESE 13 20 7 11 1025.4 1029.4 0.0
01/03:00pm -1.9 -7.0 -2.0 99 -0.1 ESE 15 20 8 11 1025.2 1029.1 0.0
01/02:30pm -1.8 -7.3 -1.9 99 -0.1 ESE 17 26 9 14 1025.2 1029.1 0.0
01/02:00pm -1.6 -5.9 -1.7 99 0.0 SE 11 24 6 13 1025.3 1029.3 0.0
01/01:30pm -1.7 -6.8 -1.8 99 0.0 ESE 15 22 8 12 1025.4 1029.4 0.0
01/01:00pm -1.4 -6.1 -1.5 99 0.0 ESE 13 24 7 13 1025.3 1029.3 0.0
01/12:30pm -1.4 -6.8 -1.5 99 0.0 ESE 17 26 9 14 1025.6 1029.5 0.0
01/12:00pm -1.3 -6.3 -1.4 99 0.0 ESE 15 20 8 11 1025.9 1029.9 0.0
01/11:30am -1.5 -7.0 -1.8 98 0.0 E 17 24 9 13 1025.9 1029.9 0.0
01/11:00am -1.7 -7.5 -1.8 99 0.0 E 19 24 10 13 1026.0 1030.0 0.0
01/10:30am -1.8 -7.3 -1.9 99 -0.1 ESE 17 26 9 14 1026.3 1030.3 0.0
01/10:00am -1.7 -6.8 -1.8 99 0.0 E 15 20 8 11 1026.3 1030.3 0.0
01/09:30am -1.9 -7.0 -2.0 99 -0.1 E 15 22 8 12 1026.2 1028.8 0.0
01/09:00am -2.4 -7.2 -2.5 99 -0.1 ENE 13 20 7 11 1026.0 1028.7 1.2
01/08:30am -2.8 -6.5 -2.9 99 -0.1 ENE 7 13 4 7 1026.2 1028.8 1.2
01/08:00am -3.6 -7.4 -3.9 98 -0.1 ENE 7 11 4 6 1026.0 1028.7 1.2
01/07:30am -4.0 -8.6 -4.4 97 0.0 NNE 11 15 6 8 1026.2 1028.8 1.2
01/07:00am -3.7 -7.9 -4.0 98 -0.1 ENE 9 17 5 9 1025.7 1028.3 1.2
01/06:30am -3.9 -7.6 -4.2 98 -0.1 ESE 6 11 3 6 1025.6 1028.2 1.2
01/06:00am -3.9 -8.5 -4.4 96 0.0 E 11 17 6 9 1025.0 1027.5 1.2
01/05:30am -3.9 -7.8 -4.7 94 0.1 E 7 11 4 6 1025.1 1027.6 1.2
01/05:00am -4.1 -8.5 -5.5 90 0.3 ESE 9 15 5 8 1024.7 1027.3 1.2
01/04:30am -3.4 -7.2 -3.9 96 0.0 ESE 7 13 4 7 1024.5 1027.0 1.2
01/04:00am -2.9 -6.6 -3.2 98 0.0 ESE 7 15 4 8 1024.6 1027.1 1.2
01/03:30am -2.7 -5.8 -2.8 99 -0.1 ESE 4 7 2 4 1024.3 1026.9 1.2
01/03:00am -2.8 -6.3 -2.9 99 -0.1 E 6 7 3 4 1024.6 1027.1 1.2
01/02:30am -2.8 -6.5 -2.9 99 -0.1 ENE 7 11 4 6 1024.7 1027.3 1.2
01/02:00am -3.1 -5.5 -3.2 99 -0.1 CALM 0 2 0 1 1024.7 1027.3 1.2
01/01:30am -3.0 -6.5 -3.1 99 -0.1 E 6 9 3 5 1025.0 1027.5 1.2
01/01:00am -3.0 -6.5 -3.1 99 -0.1 NE 6 7 3 4 1025.0 1027.5 1.2
01/12:30am -3.1 -6.9 -3.4 98 0.0 NNE 7 9 4 5 1025.1 1027.6 1.2
01/12:00am -3.1 -6.7 -3.4 98 0.0 E 6 9 3 5 1025.2 1027.8 1.2
 
Date/Time
EST
Temp
°C
App
Temp
°C
Dew
Point
°C
Rel
Hum
%
Delta-T
°C
Wind Press
QNH
hPa
Press
MSL
hPa
Rain since
9am
mm
Dir  Spd
km/h
Gust
km/h
Spd
kts
Gust
kts
30/11:30pm -2.7 -5.8 -2.8 99 -0.1 ENE 4 6 2 3 1025.3 1027.9 1.0
30/11:00pm -2.7 -5.8 -2.8 99 -0.1 ENE 4 7 2 4 1025.3 1027.9 1.0
30/10:30pm -2.3 -5.4 -2.4 99 -0.1 NNE 4 9 2 5 1025.0 1027.5 1.0

Other formats

Comma delimited format used in spreadsheet applications
http://www.bom.gov.au/fwo/IDN60801/IDN60801.95909.axf

JavaScript Object Notation format (JSON) in row-major order
http://www.bom.gov.au/fwo/IDN60801/IDN60801.95909.json

Data quality

Most of these data are generated automatically and are frequently updated. Quality checks on data are not normally performed. It is possible for incorrect values to appear. Refer to information at About Latest Weather Observations and please check the disclaimer before using these data.